createdAt,value
2023-04-24T00:02:21.928Z,6.80
2023-04-24T00:04:50.379Z,4.40
2023-04-24T00:07:18.107Z,7.00
2023-04-24T00:09:45.905Z,11.00
2023-04-24T00:12:13.422Z,4.80
2023-04-24T00:14:41.179Z,4.80
2023-04-24T00:17:08.981Z,8.20
2023-04-24T00:19:36.994Z,6.60
2023-04-24T00:22:04.769Z,3.80
2023-04-24T00:24:32.911Z,7.80
2023-04-24T00:27:02.151Z,4.00
2023-04-24T00:29:29.863Z,5.60
2023-04-24T00:31:57.740Z,9.00
2023-04-24T00:34:25.346Z,6.20
2023-04-24T00:36:53.455Z,6.00
2023-04-24T00:39:21.344Z,6.20
2023-04-24T00:41:49.418Z,6.00
2023-04-24T00:44:17.139Z,5.00
2023-04-24T00:46:44.775Z,3.20
2023-04-24T00:49:13.407Z,3.80
2023-04-24T00:51:42.083Z,4.80
2023-04-24T00:54:09.621Z,4.00
2023-04-24T00:56:37.194Z,7.60
2023-04-24T00:59:06.162Z,5.80
2023-04-24T01:01:34.139Z,5.20
2023-04-24T01:04:02.247Z,7.20
2023-04-24T01:06:32.402Z,3.00
2023-04-24T01:09:01.668Z,4.60
2023-04-24T01:11:31.904Z,3.40
2023-04-24T01:14:00.262Z,6.60
2023-04-24T01:16:28.000Z,6.80
2023-04-24T01:18:55.591Z,4.40
2023-04-24T01:21:29.240Z,5.60
2023-04-24T01:23:58.368Z,5.20
2023-04-24T01:26:26.814Z,6.40
2023-04-24T01:28:54.806Z,6.40
2023-04-24T01:31:22.691Z,4.00
2023-04-24T01:33:52.207Z,6.00
2023-04-24T01:36:20.457Z,6.00
2023-04-24T01:38:47.936Z,6.00
2023-04-24T01:41:15.365Z,7.80
2023-04-24T01:43:42.986Z,2.00
2023-04-24T01:46:11.125Z,6.20
2023-04-24T01:48:38.692Z,6.60
2023-04-24T01:51:06.267Z,6.00
2023-04-24T01:53:34.110Z,6.20
2023-04-24T01:56:02.255Z,5.80
2023-04-24T01:58:30.886Z,3.00
2023-04-24T02:01:00.077Z,7.00
2023-04-24T02:03:28.483Z,5.80
2023-04-24T02:05:57.983Z,5.80
2023-04-24T02:08:25.716Z,5.00
2023-04-24T02:10:53.187Z,5.40
2023-04-24T02:13:21.036Z,5.40
2023-04-24T02:15:48.531Z,7.60
2023-04-24T02:18:16.837Z,5.80
2023-04-24T02:20:44.294Z,2.20
2023-04-24T02:23:11.941Z,3.40
2023-04-24T02:25:39.722Z,5.40
2023-04-24T02:28:07.705Z,6.80
2023-04-24T02:30:35.423Z,5.60
2023-04-24T02:33:02.983Z,4.60
2023-04-24T02:35:31.036Z,4.60
2023-04-24T02:37:58.602Z,7.00
2023-04-24T02:40:25.993Z,5.60
2023-04-24T02:42:53.488Z,4.80
2023-04-24T02:45:20.976Z,6.00
2023-04-24T02:47:48.602Z,7.00
2023-04-24T02:50:16.134Z,5.00
2023-04-24T02:52:43.885Z,5.00
2023-04-24T02:55:11.479Z,5.80
2023-04-24T02:57:39.003Z,4.20
2023-04-24T03:00:08.394Z,6.40
2023-04-24T03:02:36.271Z,5.20
2023-04-24T03:05:05.737Z,5.00
2023-04-24T03:07:33.596Z,7.00
2023-04-24T03:10:01.010Z,5.60
2023-04-24T03:12:28.477Z,5.40
2023-04-24T03:14:56.252Z,2.60
2023-04-24T03:17:23.613Z,2.60
2023-04-24T03:19:51.277Z,3.80
2023-04-24T03:22:19.087Z,6.40
2023-04-24T03:24:46.921Z,3.00
2023-04-24T03:27:17.429Z,6.80
2023-04-24T03:29:56.842Z,6.80
2023-04-24T03:32:33.493Z,5.40
2023-04-24T03:35:01.769Z,6.00
2023-04-24T03:37:29.504Z,6.00
2023-04-24T03:40:10.352Z,7.60
2023-04-24T03:42:39.509Z,6.00
2023-04-24T03:45:08.084Z,5.60
2023-04-24T03:47:37.905Z,5.80
2023-04-24T03:50:07.160Z,6.20
2023-04-24T03:52:35.576Z,9.80
2023-04-24T03:55:03.445Z,5.80
2023-04-24T03:57:33.275Z,6.40
2023-04-24T04:00:12.697Z,6.00
2023-04-24T04:02:42.933Z,7.60
2023-04-24T04:05:11.239Z,6.40
2023-04-24T04:07:38.728Z,5.00
2023-04-24T04:10:08.273Z,6.00
2023-04-24T04:12:37.860Z,7.00
2023-04-24T04:15:07.191Z,8.00
2023-04-24T04:17:35.058Z,3.40
2023-04-24T04:20:10.590Z,7.60
2023-04-24T04:22:39.838Z,9.40
2023-04-24T04:25:10.681Z,6.60
2023-04-24T04:27:38.363Z,7.00
2023-04-24T04:30:11.094Z,13.00
2023-04-24T04:32:48.522Z,9.00
2023-04-24T04:35:16.480Z,8.80
2023-04-24T04:37:44.043Z,7.80
2023-04-24T04:40:39.560Z,6.20
2023-04-24T04:43:07.945Z,9.00
2023-04-24T04:45:44.598Z,6.80
2023-04-24T04:48:32.744Z,6.80
2023-04-24T04:51:02.653Z,7.00
2023-04-24T04:53:30.625Z,6.40
2023-04-24T04:55:58.720Z,6.80
2023-04-24T04:58:36.151Z,6.40
2023-04-24T05:01:05.128Z,6.00
2023-04-24T05:03:38.097Z,7.00
2023-04-24T05:06:09.799Z,4.50
2023-04-24T05:08:39.754Z,5.00
2023-04-24T05:11:10.745Z,6.00
2023-04-24T05:13:41.148Z,3.25
2023-04-24T05:16:17.703Z,6.25
2023-04-24T05:18:46.142Z,6.00
2023-04-24T05:21:16.500Z,6.75
2023-04-24T05:23:47.852Z,7.00
2023-04-24T05:26:21.735Z,7.50
2023-04-24T05:28:49.699Z,6.75
2023-04-24T05:31:19.167Z,7.25
2023-04-24T05:33:47.027Z,5.00
2023-04-24T05:36:14.719Z,7.00
2023-04-24T05:38:42.739Z,6.50
2023-04-24T05:41:10.225Z,5.75
2023-04-24T05:43:37.752Z,5.25
2023-04-24T05:46:06.035Z,8.00
2023-04-24T05:48:33.825Z,6.00
2023-04-24T05:51:03.815Z,6.40
2023-04-24T05:53:31.683Z,5.00
2023-04-24T05:55:59.676Z,8.60
2023-04-24T05:58:27.621Z,5.20
2023-04-24T06:00:56.461Z,8.00
2023-04-24T06:03:24.154Z,6.60
2023-04-24T06:05:52.543Z,7.60
2023-04-24T06:08:20.555Z,5.40
2023-04-24T06:10:49.365Z,7.60
2023-04-24T06:13:19.293Z,4.80
2023-04-24T06:16:06.598Z,8.00
2023-04-24T06:18:38.141Z,6.80
2023-04-24T06:21:06.571Z,8.00
2023-04-24T06:23:34.216Z,9.40
2023-04-24T06:26:01.853Z,5.80
2023-04-24T06:28:29.429Z,7.00
2023-04-24T06:30:57.259Z,8.60
2023-04-24T06:33:24.936Z,7.40
2023-04-24T06:35:53.211Z,8.00
2023-04-24T06:38:21.012Z,7.20
2023-04-24T06:40:48.700Z,7.80
2023-04-24T06:43:16.211Z,9.20
2023-04-24T06:45:45.244Z,6.20
2023-04-24T06:48:12.945Z,10.80
2023-04-24T06:50:40.613Z,7.20
2023-04-24T06:53:08.187Z,9.60
2023-04-24T06:55:37.095Z,7.80
2023-04-24T06:58:04.663Z,6.80
2023-04-24T07:00:32.180Z,6.60
2023-04-24T07:02:59.794Z,7.60
2023-04-24T07:05:27.444Z,10.40
2023-04-24T07:07:55.040Z,9.80
2023-04-24T07:10:22.462Z,8.20
2023-04-24T07:12:49.938Z,9.40
2023-04-24T07:15:17.738Z,7.20
2023-04-24T07:17:45.546Z,7.20
2023-04-24T07:20:13.677Z,8.40
2023-04-24T07:22:40.987Z,10.00
2023-04-24T07:25:09.754Z,8.80
2023-04-24T07:27:37.353Z,9.20
2023-04-24T07:30:06.363Z,6.80
2023-04-24T07:32:33.670Z,9.80
2023-04-24T07:35:01.039Z,9.80
2023-04-24T07:37:29.425Z,8.00
2023-04-24T07:39:56.973Z,9.80
2023-04-24T07:42:24.247Z,7.20
2023-04-24T07:44:52.541Z,7.20
2023-04-24T07:47:20.872Z,6.00
2023-04-24T07:49:48.263Z,7.00
2023-04-24T07:52:15.834Z,7.40
2023-04-24T07:54:44.479Z,10.20
2023-04-24T07:57:12.377Z,8.40
2023-04-24T07:59:39.938Z,8.40
2023-04-24T08:02:07.889Z,7.60
2023-04-24T08:04:35.734Z,9.00
2023-04-24T08:07:03.615Z,8.00
2023-04-24T08:09:31.215Z,8.00
2023-04-24T08:11:58.880Z,8.20
2023-04-24T08:14:26.629Z,8.00
2023-04-24T08:16:57.164Z,9.20
2023-04-24T08:19:24.753Z,11.80
2023-04-24T08:21:52.415Z,4.40
2023-04-24T08:24:20.091Z,5.40
2023-04-24T08:26:47.743Z,6.40
2023-04-24T08:29:15.361Z,9.20
2023-04-24T08:31:43.018Z,10.00
2023-04-24T08:34:11.536Z,6.00
2023-04-24T08:36:46.455Z,9.20
2023-04-24T08:39:15.981Z,8.80
2023-04-24T08:41:44.508Z,8.00
2023-04-24T08:44:12.866Z,9.40
2023-04-24T08:46:42.111Z,12.00
2023-04-24T08:49:09.611Z,9.20
2023-04-24T08:51:38.896Z,8.80
2023-04-24T08:54:06.860Z,9.00
2023-04-24T08:56:39.028Z,8.80
2023-04-24T08:59:07.871Z,6.40
2023-04-24T09:01:38.735Z,8.20
2023-04-24T09:04:08.902Z,5.00
2023-04-24T09:06:36.933Z,8.60
2023-04-24T09:09:04.698Z,10.40
2023-04-24T09:11:33.913Z,8.60
2023-04-24T09:14:01.843Z,8.40
2023-04-24T09:16:30.224Z,9.00
2023-04-24T09:18:57.633Z,10.20
2023-04-24T09:21:24.961Z,8.80
2023-04-24T09:24:15.771Z,8.60
2023-04-24T09:26:46.019Z,8.75
2023-04-24T09:29:19.898Z,7.25
2023-04-24T09:31:47.611Z,9.60
2023-04-24T09:34:14.943Z,9.00
2023-04-24T09:36:44.019Z,8.75
2023-04-24T09:39:13.593Z,11.00
2023-04-24T09:42:00.522Z,9.75
2023-04-24T09:44:29.649Z,4.25
2023-04-24T09:47:01.351Z,10.50
2023-04-24T09:49:30.523Z,8.50
2023-04-24T09:52:06.365Z,8.60
2023-04-24T09:54:34.373Z,9.20
2023-04-24T09:57:01.694Z,7.60
2023-04-24T09:59:29.678Z,9.20
2023-04-24T10:01:57.912Z,8.60
2023-04-24T10:04:30.343Z,8.00
2023-04-24T10:06:59.105Z,7.00
2023-04-24T10:09:28.079Z,9.20
2023-04-24T10:11:56.211Z,9.20
2023-04-24T10:14:25.389Z,10.00
2023-04-24T10:16:56.352Z,8.40
2023-04-24T10:19:27.278Z,9.40
2023-04-24T10:21:56.924Z,7.40
2023-04-24T10:24:24.627Z,8.40
2023-04-24T10:26:52.465Z,7.00
2023-04-24T10:29:20.822Z,10.00
2023-04-24T10:31:48.786Z,8.00
2023-04-24T10:34:18.900Z,7.40
2023-04-24T10:36:55.215Z,6.00
2023-04-24T10:39:27.925Z,7.60
2023-04-24T10:41:59.650Z,7.40
2023-04-24T10:44:37.188Z,6.80
2023-04-24T10:47:04.966Z,8.20
2023-04-24T10:49:33.380Z,7.60
2023-04-24T10:52:07.826Z,7.00
2023-04-24T10:54:48.827Z,9.00
2023-04-24T10:57:23.199Z,8.40
2023-04-24T10:59:53.206Z,6.20
2023-04-24T11:02:38.121Z,7.60
2023-04-24T11:05:06.570Z,9.20
2023-04-24T11:08:19.402Z,8.20
2023-04-24T11:10:49.052Z,6.60
2023-04-24T11:13:23.754Z,3.80
2023-04-24T11:16:14.065Z,8.40
2023-04-24T11:18:46.713Z,5.40
2023-04-24T11:21:17.769Z,4.40
2023-04-24T11:23:47.455Z,7.60
2023-04-24T11:26:33.626Z,7.60
2023-04-24T11:29:13.284Z,7.60
2023-04-24T11:31:43.263Z,4.60
2023-04-24T11:34:15.492Z,5.80
2023-04-24T11:36:47.743Z,9.40
2023-04-24T11:39:16.625Z,4.20
2023-04-24T11:41:44.242Z,8.40
2023-04-24T11:44:12.948Z,12.20
2023-04-24T11:46:41.552Z,8.60
2023-04-24T11:49:09.479Z,3.80
2023-04-24T11:51:48.741Z,8.40
2023-04-24T11:54:20.844Z,11.20
2023-04-24T11:56:49.228Z,9.80
2023-04-24T11:59:16.398Z,11.00
2023-04-24T12:01:51.525Z,11.40
2023-04-24T12:04:20.591Z,9.40
2023-04-24T12:07:04.121Z,8.60
2023-04-24T12:09:47.675Z,8.80
2023-04-24T12:12:18.573Z,11.40
2023-04-24T12:14:55.934Z,10.00
2023-04-24T12:17:31.433Z,8.60
2023-04-24T12:20:07.575Z,12.00
2023-04-24T12:22:54.932Z,10.00
2023-04-24T12:25:24.807Z,9.20
2023-04-24T12:28:12.651Z,11.00
2023-04-24T12:30:50.344Z,10.60
2023-04-24T12:33:22.317Z,10.60
2023-04-24T12:35:56.757Z,14.80
2023-04-24T12:38:27.690Z,11.00
2023-04-24T12:41:08.335Z,10.60
2023-04-24T12:43:36.547Z,12.60
2023-04-24T12:46:04.315Z,8.60
2023-04-24T12:48:32.189Z,10.60
2023-04-24T12:51:02.850Z,5.80
2023-04-24T12:53:33.232Z,8.80
2023-04-24T12:56:00.772Z,7.00
2023-04-24T12:58:28.335Z,9.80
2023-04-24T13:00:55.920Z,11.40
2023-04-24T13:03:23.966Z,9.20
2023-04-24T13:05:51.550Z,12.00
2023-04-24T13:08:19.027Z,9.80
2023-04-24T13:10:46.894Z,5.40
2023-04-24T13:13:14.454Z,7.60
2023-04-24T13:15:41.786Z,10.60
2023-04-24T13:18:09.064Z,8.20
2023-04-24T13:20:36.829Z,9.00
2023-04-24T13:23:04.646Z,11.20
2023-04-24T13:25:38.539Z,10.80
2023-04-24T13:28:06.026Z,8.60
2023-04-24T13:30:33.358Z,10.60
2023-04-24T13:33:01.082Z,10.40
2023-04-24T13:35:28.479Z,9.40
2023-04-24T13:37:56.419Z,7.40
2023-04-24T13:40:23.998Z,12.00
2023-04-24T13:42:52.138Z,12.60
2023-04-24T13:45:25.160Z,9.40
2023-04-24T13:47:55.330Z,10.40
2023-04-24T13:50:23.108Z,11.20
2023-04-24T13:52:50.885Z,10.60
2023-04-24T13:55:18.614Z,10.40
2023-04-24T13:57:46.252Z,11.40
2023-04-24T14:00:14.552Z,11.40
2023-04-24T14:02:42.477Z,8.80
2023-04-24T14:05:12.252Z,8.60
2023-04-24T14:07:39.849Z,6.40
2023-04-24T14:10:07.928Z,13.00
2023-04-24T14:12:35.851Z,10.20
2023-04-24T14:15:03.629Z,11.00
2023-04-24T14:17:32.187Z,10.60
2023-04-24T14:20:01.704Z,9.40
2023-04-24T14:22:29.318Z,9.00
2023-04-24T14:24:56.962Z,9.00
2023-04-24T14:27:24.698Z,10.80
2023-04-24T14:29:52.164Z,9.20
2023-04-24T14:32:19.831Z,9.20
2023-04-24T14:34:47.279Z,9.20
2023-04-24T14:37:15.054Z,12.60
2023-04-24T14:39:44.487Z,11.40
2023-04-24T14:42:15.466Z,13.00
2023-04-24T14:44:43.048Z,10.80
2023-04-24T14:47:10.929Z,11.80
2023-04-24T14:49:39.140Z,13.20
2023-04-24T14:52:06.933Z,11.20
2023-04-24T14:54:34.269Z,11.80
2023-04-24T14:57:02.432Z,12.00
2023-04-24T14:59:30.223Z,11.80
2023-04-24T15:02:12.597Z,12.40
2023-04-24T15:04:43.269Z,17.25
2023-04-24T15:07:10.563Z,14.00
2023-04-24T15:09:37.836Z,13.00
2023-04-24T15:12:05.198Z,5.50
2023-04-24T15:14:32.575Z,20.25
2023-04-24T15:16:59.926Z,21.50
2023-04-24T15:19:27.280Z,33.75
2023-04-24T15:21:54.754Z,12.00
2023-04-24T15:24:22.036Z,8.50
2023-04-24T15:26:49.397Z,20.50
2023-04-24T15:29:16.784Z,32.25
2023-04-24T15:31:44.119Z,13.50
2023-04-24T15:34:11.392Z,15.25
2023-04-24T15:36:39.008Z,12.25
2023-04-24T15:39:08.398Z,16.75
2023-04-24T15:41:37.129Z,14.25
2023-04-24T15:44:04.688Z,11.00
2023-04-24T15:46:32.263Z,12.00
2023-04-24T15:49:00.418Z,15.50
2023-04-24T15:51:27.949Z,14.75
2023-04-24T15:53:55.160Z,11.50
2023-04-24T15:56:22.733Z,10.50
2023-04-24T15:58:50.314Z,9.50
2023-04-24T16:01:17.701Z,9.75
2023-04-24T16:03:45.352Z,12.00
2023-04-24T16:06:13.739Z,16.25
2023-04-24T16:08:40.987Z,9.50
2023-04-24T16:11:08.272Z,8.75
2023-04-24T16:13:35.861Z,11.75
2023-04-24T16:16:03.668Z,12.25
2023-04-24T16:18:31.129Z,11.00
2023-04-24T16:20:58.385Z,10.75
2023-04-24T16:23:25.702Z,11.75
2023-04-24T16:25:53.190Z,13.75
2023-04-24T16:28:20.622Z,15.00
2023-04-24T16:30:47.778Z,15.75
2023-04-24T16:33:16.086Z,10.50
2023-04-24T16:35:44.577Z,14.50
2023-04-24T16:38:12.037Z,15.75
2023-04-24T16:40:39.550Z,12.75
2023-04-24T16:43:07.201Z,12.75
2023-04-24T16:45:34.817Z,13.00
2023-04-24T16:48:02.512Z,10.25
2023-04-24T16:50:29.990Z,18.00
2023-04-24T16:52:57.259Z,10.75
2023-04-24T16:55:25.559Z,11.00
2023-04-24T16:57:53.178Z,10.75
2023-04-24T17:00:20.638Z,15.25
2023-04-24T17:02:50.567Z,10.75
2023-04-24T17:05:19.682Z,14.50
2023-04-24T17:07:46.898Z,9.50
2023-04-24T17:10:14.188Z,10.25
2023-04-24T17:12:41.608Z,15.00
2023-04-24T17:15:09.131Z,11.00
2023-04-24T17:17:36.600Z,10.00
2023-04-24T17:20:14.925Z,8.75
2023-04-24T17:22:49.152Z,8.50
2023-04-24T17:25:16.628Z,9.50
2023-04-24T17:27:45.232Z,11.25
2023-04-24T17:30:13.048Z,13.00
2023-04-24T17:32:40.434Z,12.25
2023-04-24T17:35:08.423Z,8.00
2023-04-24T17:37:36.233Z,8.75
2023-04-24T17:40:04.599Z,8.25
2023-04-24T17:42:31.868Z,11.50
2023-04-24T17:44:59.190Z,7.50
2023-04-24T17:47:27.623Z,10.50
2023-04-24T17:49:55.035Z,9.50
2023-04-24T17:52:22.274Z,6.50
2023-04-24T17:54:49.946Z,12.75
2023-04-24T17:57:17.305Z,9.25
2023-04-24T17:59:44.556Z,8.25
2023-04-24T18:02:11.995Z,13.25
2023-04-24T18:04:40.669Z,8.50
2023-04-24T18:07:07.970Z,15.00
2023-04-24T18:09:35.312Z,7.50
2023-04-24T18:12:02.707Z,8.25
2023-04-24T18:14:30.037Z,8.75
2023-04-24T18:16:58.358Z,10.25
2023-04-24T18:19:25.555Z,7.50
2023-04-24T18:21:52.845Z,9.50
2023-04-24T18:24:22.659Z,10.00
2023-04-24T18:26:50.050Z,7.00
2023-04-24T18:29:17.355Z,9.25
2023-04-24T18:31:44.901Z,7.00
2023-04-24T18:34:12.258Z,11.00
2023-04-24T18:36:39.526Z,5.00
2023-04-24T18:39:06.815Z,8.75
2023-04-24T18:41:35.479Z,7.50
2023-04-24T18:44:02.869Z,7.75
2023-04-24T18:46:31.410Z,9.75
2023-04-24T18:48:58.638Z,11.25
2023-04-24T18:51:26.375Z,7.00
2023-04-24T18:53:53.900Z,7.00
2023-04-24T18:56:21.257Z,10.25
2023-04-24T18:58:48.675Z,12.25
2023-04-24T19:01:16.260Z,11.75
2023-04-24T19:03:43.601Z,10.75
2023-04-24T19:06:10.862Z,11.00
2023-04-24T19:08:38.876Z,11.25
2023-04-24T19:11:06.213Z,12.00
2023-04-24T19:13:34.621Z,12.75
2023-04-24T19:16:01.933Z,10.50
2023-04-24T19:18:29.658Z,11.25
2023-04-24T19:20:57.174Z,11.25
2023-04-24T19:23:24.537Z,14.75
2023-04-24T19:25:51.977Z,12.75
2023-04-24T19:28:19.352Z,15.00
2023-04-24T19:30:46.866Z,15.00
2023-04-24T19:33:14.064Z,10.00
2023-04-24T19:35:41.395Z,13.50
2023-04-24T19:38:08.661Z,24.50
2023-04-24T19:40:36.008Z,18.25
2023-04-24T19:43:03.277Z,18.75
2023-04-24T19:45:30.589Z,15.50
2023-04-24T19:47:57.954Z,8.00
2023-04-24T19:50:25.536Z,12.50
2023-04-24T19:52:53.166Z,10.25
2023-04-24T19:55:20.845Z,9.25
2023-04-24T19:57:48.320Z,10.00
2023-04-24T20:00:16.566Z,11.25
2023-04-24T20:02:44.200Z,12.00
2023-04-24T20:05:12.066Z,10.25
2023-04-24T20:07:39.816Z,13.00
2023-04-24T20:10:08.093Z,15.75
2023-04-24T20:12:36.614Z,17.80
2023-04-24T20:15:05.321Z,16.00
2023-04-24T20:17:32.857Z,12.40
2023-04-24T20:20:00.623Z,15.60
2023-04-24T20:22:28.410Z,15.00
2023-04-24T20:24:56.091Z,13.40
2023-04-24T20:27:23.814Z,13.00
2023-04-24T20:29:51.654Z,14.40
2023-04-24T20:32:19.333Z,10.80
2023-04-24T20:34:46.895Z,13.20
2023-04-24T20:37:14.404Z,12.40
2023-04-24T20:39:41.927Z,13.80
2023-04-24T20:42:11.079Z,13.00
2023-04-24T20:44:39.293Z,16.20
2023-04-24T20:47:06.976Z,13.00
2023-04-24T20:49:34.649Z,14.00
2023-04-24T20:52:02.558Z,13.40
2023-04-24T20:54:30.297Z,12.80
2023-04-24T20:56:58.326Z,11.60
2023-04-24T20:59:26.049Z,12.80
2023-04-24T21:01:53.575Z,17.20
2023-04-24T21:04:21.199Z,12.00
2023-04-24T21:06:48.810Z,15.60
2023-04-24T21:09:16.777Z,17.20
2023-04-24T21:11:44.415Z,15.60
2023-04-24T21:14:11.893Z,12.00
2023-04-24T21:16:39.617Z,14.40
2023-04-24T21:19:07.168Z,11.60
2023-04-24T21:21:34.692Z,17.80
2023-04-24T21:24:04.417Z,14.00
2023-04-24T21:26:32.042Z,14.40
2023-04-24T21:29:00.074Z,11.80
2023-04-24T21:31:27.692Z,14.00
2023-04-24T21:33:55.160Z,14.00
2023-04-24T21:36:22.739Z,12.00
2023-04-24T21:38:50.528Z,15.40
2023-04-24T21:41:17.955Z,15.00
2023-04-24T21:43:49.938Z,14.60
2023-04-24T21:46:18.334Z,16.80
2023-04-24T21:48:46.316Z,11.40
2023-04-24T21:51:14.887Z,13.40
2023-04-24T21:53:42.285Z,10.20
2023-04-24T21:56:10.095Z,11.60
2023-04-24T21:58:37.967Z,15.00
2023-04-24T22:01:05.741Z,12.60
2023-04-24T22:03:33.531Z,10.80
2023-04-24T22:06:01.762Z,14.00
2023-04-24T22:08:29.288Z,15.00
2023-04-24T22:10:57.325Z,13.60
2023-04-24T22:13:24.933Z,16.00
2023-04-24T22:15:52.578Z,12.20
2023-04-24T22:18:20.179Z,12.80
2023-04-24T22:20:48.819Z,10.80
2023-04-24T22:23:16.809Z,16.60
2023-04-24T22:25:44.555Z,14.80
2023-04-24T22:28:12.208Z,15.60
2023-04-24T22:30:39.732Z,12.00
2023-04-24T22:33:07.293Z,10.00
2023-04-24T22:35:36.631Z,13.00
2023-04-24T22:38:04.202Z,13.00
2023-04-24T22:40:32.014Z,10.20
2023-04-24T22:42:59.338Z,13.20
2023-04-24T22:45:27.432Z,12.80
2023-04-24T22:47:55.535Z,12.60
2023-04-24T22:50:23.216Z,6.80
2023-04-24T22:52:50.652Z,13.00
2023-04-24T22:55:18.329Z,9.20
2023-04-24T22:57:45.996Z,14.40
2023-04-24T23:00:13.782Z,11.00
2023-04-24T23:02:42.521Z,10.00
2023-04-24T23:05:11.556Z,12.60
2023-04-24T23:07:39.335Z,11.20
2023-04-24T23:10:07.823Z,11.80
2023-04-24T23:12:35.504Z,12.60
2023-04-24T23:15:03.177Z,12.40
2023-04-24T23:17:30.658Z,12.80
2023-04-24T23:19:58.446Z,12.60
2023-04-24T23:22:25.970Z,11.60
2023-04-24T23:24:53.471Z,11.80
2023-04-24T23:27:20.899Z,13.60
2023-04-24T23:29:49.039Z,9.80
2023-04-24T23:32:16.731Z,9.80
2023-04-24T23:34:44.521Z,6.80
2023-04-24T23:37:12.291Z,11.80
2023-04-24T23:39:39.753Z,9.60
2023-04-24T23:42:08.028Z,4.20
2023-04-24T23:44:35.626Z,10.40
2023-04-24T23:47:03.049Z,11.80
2023-04-24T23:49:30.537Z,7.20
2023-04-24T23:51:58.248Z,9.40
2023-04-24T23:54:26.627Z,8.00
2023-04-24T23:56:54.304Z,7.20
2023-04-24T23:59:22.050Z,5.80
